sensor_id;sensor_type;location;lat;lon;timestamp;temperature;humidity
33645;DHT22;19986;48.190;16.366;2023-09-12T00:01:41;24.40;99.90
33645;DHT22;19986;48.190;16.366;2023-09-12T00:04:07;24.30;99.90
33645;DHT22;19986;48.190;16.366;2023-09-12T00:06:33;24.30;99.90
33645;DHT22;19986;48.190;16.366;2023-09-12T00:08:59;24.30;99.90
33645;DHT22;19986;48.190;16.366;2023-09-12T00:11:24;24.30;99.90
33645;DHT22;19986;48.190;16.366;2023-09-12T00:13:51;24.30;99.90
33645;DHT22;19986;48.190;16.366;2023-09-12T00:16:17;24.30;99.90
33645;DHT22;19986;48.190;16.366;2023-09-12T00:18:43;24.30;99.90
33645;DHT22;19986;48.190;16.366;2023-09-12T00:21:09;24.30;99.90
33645;DHT22;19986;48.190;16.366;2023-09-12T00:23:35;24.30;99.90
33645;DHT22;19986;48.190;16.366;2023-09-12T00:26:01;24.30;99.90
33645;DHT22;19986;48.190;16.366;2023-09-12T00:28:27;24.30;99.90
33645;DHT22;19986;48.190;16.366;2023-09-12T00:30:53;24.40;99.90
33645;DHT22;19986;48.190;16.366;2023-09-12T00:33:19;24.40;99.90
33645;DHT22;19986;48.190;16.366;2023-09-12T00:35:45;24.30;99.90
33645;DHT22;19986;48.190;16.366;2023-09-12T00:38:11;24.30;99.90
33645;DHT22;19986;48.190;16.366;2023-09-12T00:40:37;24.30;99.90
33645;DHT22;19986;48.190;16.366;2023-09-12T00:43:03;24.30;99.90
33645;DHT22;19986;48.190;16.366;2023-09-12T00:45:29;24.20;99.90
33645;DHT22;19986;48.190;16.366;2023-09-12T00:48:01;24.20;99.90
33645;DHT22;19986;48.190;16.366;2023-09-12T00:50:29;24.20;99.90
33645;DHT22;19986;48.190;16.366;2023-09-12T00:52:56;24.20;99.90
33645;DHT22;19986;48.190;16.366;2023-09-12T00:55:22;24.20;99.90
33645;DHT22;19986;48.190;16.366;2023-09-12T00:57:48;24.20;99.90
33645;DHT22;19986;48.190;16.366;2023-09-12T01:00:15;24.10;99.90
33645;DHT22;19986;48.190;16.366;2023-09-12T01:02:41;24.10;99.90
33645;DHT22;19986;48.190;16.366;2023-09-12T01:05:08;24.20;99.90
33645;DHT22;19986;48.190;16.366;2023-09-12T01:07:38;24.20;99.90
33645;DHT22;19986;48.190;16.366;2023-09-12T01:10:05;24.20;99.90
33645;DHT22;19986;48.190;16.366;2023-09-12T01:12:31;24.10;99.90
33645;DHT22;19986;48.190;16.366;2023-09-12T01:14:57;24.10;99.90
33645;DHT22;19986;48.190;16.366;2023-09-12T01:17:24;24.10;99.90
33645;DHT22;19986;48.190;16.366;2023-09-12T01:19:50;24.00;99.90
33645;DHT22;19986;48.190;16.366;2023-09-12T01:27:47;24.00;99.90
33645;DHT22;19986;48.190;16.366;2023-09-12T01:30:21;24.00;99.90
33645;DHT22;19986;48.190;16.366;2023-09-12T01:32:48;24.00;99.90
33645;DHT22;19986;48.190;16.366;2023-09-12T01:35:15;23.90;99.90
33645;DHT22;19986;48.190;16.366;2023-09-12T01:37:41;23.80;99.90
33645;DHT22;19986;48.190;16.366;2023-09-12T01:40:08;23.70;99.90
33645;DHT22;19986;48.190;16.366;2023-09-12T01:42:42;23.70;99.90
33645;DHT22;19986;48.190;16.366;2023-09-12T01:45:11;23.70;99.90
33645;DHT22;19986;48.190;16.366;2023-09-12T01:47:39;23.60;99.90
33645;DHT22;19986;48.190;16.366;2023-09-12T01:50:09;23.50;99.90
33645;DHT22;19986;48.190;16.366;2023-09-12T01:52:38;23.50;99.90
33645;DHT22;19986;48.190;16.366;2023-09-12T01:55:05;23.40;99.90
33645;DHT22;19986;48.190;16.366;2023-09-12T01:57:33;23.40;99.90
33645;DHT22;19986;48.190;16.366;2023-09-12T01:59:59;23.30;99.90
33645;DHT22;19986;48.190;16.366;2023-09-12T02:02:25;23.30;99.90
33645;DHT22;19986;48.190;16.366;2023-09-12T02:07:29;23.30;99.90
33645;DHT22;19986;48.190;16.366;2023-09-12T02:09:58;23.20;99.90
33645;DHT22;19986;48.190;16.366;2023-09-12T02:12:26;23.20;99.90
33645;DHT22;19986;48.190;16.366;2023-09-12T02:14:53;23.20;99.90
33645;DHT22;19986;48.190;16.366;2023-09-12T02:17:19;23.20;99.90
33645;DHT22;19986;48.190;16.366;2023-09-12T02:19:47;23.20;99.90
33645;DHT22;19986;48.190;16.366;2023-09-12T02:22:14;23.10;99.90
33645;DHT22;19986;48.190;16.366;2023-09-12T02:24:40;23.10;99.90
33645;DHT22;19986;48.190;16.366;2023-09-12T02:27:05;23.20;99.90
33645;DHT22;19986;48.190;16.366;2023-09-12T02:29:31;23.20;99.90
33645;DHT22;19986;48.190;16.366;2023-09-12T02:32:00;23.10;99.90
33645;DHT22;19986;48.190;16.366;2023-09-12T02:34:26;23.10;99.90
33645;DHT22;19986;48.190;16.366;2023-09-12T02:36:52;23.00;99.90
33645;DHT22;19986;48.190;16.366;2023-09-12T02:39:19;23.00;99.90
33645;DHT22;19986;48.190;16.366;2023-09-12T02:41:45;23.00;99.90
33645;DHT22;19986;48.190;16.366;2023-09-12T02:44:11;23.00;99.90
33645;DHT22;19986;48.190;16.366;2023-09-12T02:46:37;23.00;99.90
33645;DHT22;19986;48.190;16.366;2023-09-12T02:49:03;23.10;99.90
33645;DHT22;19986;48.190;16.366;2023-09-12T02:51:29;23.10;99.90
33645;DHT22;19986;48.190;16.366;2023-09-12T02:53:55;23.10;99.90
33645;DHT22;19986;48.190;16.366;2023-09-12T02:56:21;23.10;99.90
33645;DHT22;19986;48.190;16.366;2023-09-12T02:58:48;23.10;99.90
33645;DHT22;19986;48.190;16.366;2023-09-12T03:01:17;23.10;99.90
33645;DHT22;19986;48.190;16.366;2023-09-12T03:03:46;23.10;99.90
33645;DHT22;19986;48.190;16.366;2023-09-12T03:06:13;23.20;99.90
33645;DHT22;19986;48.190;16.366;2023-09-12T03:08:40;23.20;99.90
33645;DHT22;19986;48.190;16.366;2023-09-12T03:11:06;23.20;99.90
33645;DHT22;19986;48.190;16.366;2023-09-12T03:13:33;23.10;99.90
33645;DHT22;19986;48.190;16.366;2023-09-12T03:16:00;23.20;99.90
33645;DHT22;19986;48.190;16.366;2023-09-12T03:18:26;23.10;99.90
33645;DHT22;19986;48.190;16.366;2023-09-12T03:20:52;23.10;99.90
33645;DHT22;19986;48.190;16.366;2023-09-12T03:23:19;23.10;99.90
33645;DHT22;19986;48.190;16.366;2023-09-12T03:25:45;23.20;99.90
33645;DHT22;19986;48.190;16.366;2023-09-12T03:28:11;23.10;99.90
33645;DHT22;19986;48.190;16.366;2023-09-12T03:30:38;23.00;99.90
33645;DHT22;19986;48.190;16.366;2023-09-12T03:33:04;22.90;99.90
33645;DHT22;19986;48.190;16.366;2023-09-12T03:35:32;22.90;99.90
33645;DHT22;19986;48.190;16.366;2023-09-12T03:37:58;22.80;99.90
33645;DHT22;19986;48.190;16.366;2023-09-12T03:40:24;22.80;99.90
33645;DHT22;19986;48.190;16.366;2023-09-12T03:42:50;22.70;99.90
33645;DHT22;19986;48.190;16.366;2023-09-12T03:45:16;22.70;99.90
33645;DHT22;19986;48.190;16.366;2023-09-12T03:47:42;22.70;99.90
33645;DHT22;19986;48.190;16.366;2023-09-12T03:50:09;22.70;99.90
33645;DHT22;19986;48.190;16.366;2023-09-12T03:52:35;22.70;99.90
33645;DHT22;19986;48.190;16.366;2023-09-12T03:55:00;22.70;99.90
33645;DHT22;19986;48.190;16.366;2023-09-12T03:57:27;22.70;99.90
33645;DHT22;19986;48.190;16.366;2023-09-12T03:59:52;22.60;99.90
33645;DHT22;19986;48.190;16.366;2023-09-12T04:02:18;22.70;99.90
33645;DHT22;19986;48.190;16.366;2023-09-12T04:04:44;22.70;99.90
33645;DHT22;19986;48.190;16.366;2023-09-12T04:07:10;22.70;99.90
33645;DHT22;19986;48.190;16.366;2023-09-12T04:09:36;22.70;99.90
33645;DHT22;19986;48.190;16.366;2023-09-12T04:12:02;22.70;99.90
33645;DHT22;19986;48.190;16.366;2023-09-12T04:14:27;22.70;99.90
33645;DHT22;19986;48.190;16.366;2023-09-12T04:16:53;22.70;99.90
33645;DHT22;19986;48.190;16.366;2023-09-12T04:19:19;22.70;99.90
33645;DHT22;19986;48.190;16.366;2023-09-12T04:21:45;22.70;99.90
33645;DHT22;19986;48.190;16.366;2023-09-12T04:24:10;22.70;99.90
33645;DHT22;19986;48.190;16.366;2023-09-12T04:26:36;22.70;99.90
33645;DHT22;19986;48.190;16.366;2023-09-12T04:29:02;22.70;99.90
33645;DHT22;19986;48.190;16.366;2023-09-12T04:31:28;22.70;99.90
33645;DHT22;19986;48.190;16.366;2023-09-12T04:33:54;22.70;99.90
33645;DHT22;19986;48.190;16.366;2023-09-12T04:36:23;22.70;99.90
33645;DHT22;19986;48.190;16.366;2023-09-12T04:38:49;22.70;99.90
33645;DHT22;19986;48.190;16.366;2023-09-12T04:41:14;22.70;99.90
33645;DHT22;19986;48.190;16.366;2023-09-12T04:43:43;22.70;99.90
33645;DHT22;19986;48.190;16.366;2023-09-12T04:46:12;22.70;99.90
33645;DHT22;19986;48.190;16.366;2023-09-12T04:48:39;22.70;99.90
33645;DHT22;19986;48.190;16.366;2023-09-12T04:51:05;22.70;99.90
33645;DHT22;19986;48.190;16.366;2023-09-12T04:53:31;22.70;99.90
33645;DHT22;19986;48.190;16.366;2023-09-12T04:56:03;22.80;99.90
33645;DHT22;19986;48.190;16.366;2023-09-12T04:58:29;22.80;99.90
33645;DHT22;19986;48.190;16.366;2023-09-12T05:00:55;22.80;99.90
33645;DHT22;19986;48.190;16.366;2023-09-12T05:03:22;22.80;99.90
33645;DHT22;19986;48.190;16.366;2023-09-12T05:05:49;22.80;99.90
33645;DHT22;19986;48.190;16.366;2023-09-12T05:08:16;22.90;99.90
33645;DHT22;19986;48.190;16.366;2023-09-12T05:10:44;22.90;99.90
33645;DHT22;19986;48.190;16.366;2023-09-12T05:13:10;22.90;99.90
33645;DHT22;19986;48.190;16.366;2023-09-12T05:15:36;22.90;99.90
33645;DHT22;19986;48.190;16.366;2023-09-12T05:18:05;23.00;99.90
33645;DHT22;19986;48.190;16.366;2023-09-12T05:20:32;23.00;99.90
33645;DHT22;19986;48.190;16.366;2023-09-12T05:22:57;23.00;99.90
33645;DHT22;19986;48.190;16.366;2023-09-12T05:25:23;23.00;99.90
33645;DHT22;19986;48.190;16.366;2023-09-12T05:27:49;23.00;99.90
33645;DHT22;19986;48.190;16.366;2023-09-12T05:30:15;23.00;99.90
33645;DHT22;19986;48.190;16.366;2023-09-12T05:32:41;23.00;99.90
33645;DHT22;19986;48.190;16.366;2023-09-12T05:35:07;23.10;99.90
33645;DHT22;19986;48.190;16.366;2023-09-12T05:37:33;23.10;99.90
33645;DHT22;19986;48.190;16.366;2023-09-12T05:39:59;23.10;99.90
33645;DHT22;19986;48.190;16.366;2023-09-12T05:42:25;23.20;99.90
33645;DHT22;19986;48.190;16.366;2023-09-12T05:44:51;23.20;99.90
33645;DHT22;19986;48.190;16.366;2023-09-12T05:47:20;23.20;99.90
33645;DHT22;19986;48.190;16.366;2023-09-12T05:49:46;23.30;99.90
33645;DHT22;19986;48.190;16.366;2023-09-12T05:52:12;23.20;99.90
33645;DHT22;19986;48.190;16.366;2023-09-12T05:54:39;23.30;99.90
33645;DHT22;19986;48.190;16.366;2023-09-12T05:57:06;23.30;99.90
33645;DHT22;19986;48.190;16.366;2023-09-12T05:59:34;23.30;99.90
33645;DHT22;19986;48.190;16.366;2023-09-12T06:02:00;23.40;99.90
33645;DHT22;19986;48.190;16.366;2023-09-12T06:04:25;23.40;99.90
33645;DHT22;19986;48.190;16.366;2023-09-12T06:06:51;23.40;99.90
33645;DHT22;19986;48.190;16.366;2023-09-12T06:09:17;23.50;99.90
33645;DHT22;19986;48.190;16.366;2023-09-12T06:11:43;23.50;99.90
33645;DHT22;19986;48.190;16.366;2023-09-12T06:14:10;23.60;99.90
33645;DHT22;19986;48.190;16.366;2023-09-12T06:16:35;23.50;99.90
33645;DHT22;19986;48.190;16.366;2023-09-12T06:19:01;23.60;99.90
33645;DHT22;19986;48.190;16.366;2023-09-12T06:21:27;23.70;99.90
33645;DHT22;19986;48.190;16.366;2023-09-12T06:24:16;23.70;99.90
33645;DHT22;19986;48.190;16.366;2023-09-12T06:26:42;23.80;99.90
33645;DHT22;19986;48.190;16.366;2023-09-12T06:29:08;23.90;99.90
33645;DHT22;19986;48.190;16.366;2023-09-12T06:31:35;23.90;99.90
33645;DHT22;19986;48.190;16.366;2023-09-12T06:34:01;24.00;99.90
33645;DHT22;19986;48.190;16.366;2023-09-12T06:36:28;24.00;99.90
33645;DHT22;19986;48.190;16.366;2023-09-12T06:38:55;24.00;99.90
33645;DHT22;19986;48.190;16.366;2023-09-12T06:41:22;24.00;99.90
33645;DHT22;19986;48.190;16.366;2023-09-12T06:43:47;24.10;99.90
33645;DHT22;19986;48.190;16.366;2023-09-12T06:46:14;24.10;99.90
33645;DHT22;19986;48.190;16.366;2023-09-12T06:48:40;24.30;99.90
33645;DHT22;19986;48.190;16.366;2023-09-12T06:51:08;24.30;99.90
33645;DHT22;19986;48.190;16.366;2023-09-12T06:53:35;24.30;99.90
33645;DHT22;19986;48.190;16.366;2023-09-12T06:56:03;24.30;99.90
33645;DHT22;19986;48.190;16.366;2023-09-12T06:58:29;24.40;99.90
33645;DHT22;19986;48.190;16.366;2023-09-12T07:00:54;24.50;99.90
33645;DHT22;19986;48.190;16.366;2023-09-12T07:03:20;24.50;99.90
33645;DHT22;19986;48.190;16.366;2023-09-12T07:05:46;24.50;99.90
33645;DHT22;19986;48.190;16.366;2023-09-12T07:08:12;24.60;99.90
33645;DHT22;19986;48.190;16.366;2023-09-12T07:10:44;24.70;99.90
33645;DHT22;19986;48.190;16.366;2023-09-12T07:13:12;24.80;99.90
33645;DHT22;19986;48.190;16.366;2023-09-12T07:15:38;24.90;99.90
33645;DHT22;19986;48.190;16.366;2023-09-12T07:18:04;24.90;99.90
33645;DHT22;19986;48.190;16.366;2023-09-12T07:20:33;25.00;99.90
33645;DHT22;19986;48.190;16.366;2023-09-12T07:22:59;25.10;99.90
33645;DHT22;19986;48.190;16.366;2023-09-12T07:25:25;25.20;99.90
33645;DHT22;19986;48.190;16.366;2023-09-12T07:27:51;25.30;99.90
33645;DHT22;19986;48.190;16.366;2023-09-12T07:30:17;25.40;99.90
33645;DHT22;19986;48.190;16.366;2023-09-12T07:32:43;25.40;99.90
33645;DHT22;19986;48.190;16.366;2023-09-12T07:35:09;25.50;99.90
33645;DHT22;19986;48.190;16.366;2023-09-12T07:37:35;25.40;99.90
33645;DHT22;19986;48.190;16.366;2023-09-12T07:40:01;25.40;99.90
33645;DHT22;19986;48.190;16.366;2023-09-12T07:42:32;25.40;99.90
33645;DHT22;19986;48.190;16.366;2023-09-12T07:44:58;25.50;99.90
33645;DHT22;19986;48.190;16.366;2023-09-12T07:47:23;25.50;99.90
33645;DHT22;19986;48.190;16.366;2023-09-12T07:49:53;25.70;99.90
33645;DHT22;19986;48.190;16.366;2023-09-12T07:52:19;25.70;99.90
33645;DHT22;19986;48.190;16.366;2023-09-12T07:54:45;25.70;99.90
33645;DHT22;19986;48.190;16.366;2023-09-12T07:57:10;25.70;99.90
33645;DHT22;19986;48.190;16.366;2023-09-12T07:59:36;25.80;99.90
33645;DHT22;19986;48.190;16.366;2023-09-12T08:02:02;25.80;99.90
33645;DHT22;19986;48.190;16.366;2023-09-12T08:04:28;25.80;99.90
33645;DHT22;19986;48.190;16.366;2023-09-12T08:06:54;25.90;99.90
33645;DHT22;19986;48.190;16.366;2023-09-12T08:09:21;26.00;99.90
33645;DHT22;19986;48.190;16.366;2023-09-12T08:11:46;26.10;99.90
33645;DHT22;19986;48.190;16.366;2023-09-12T08:14:12;26.10;99.90
33645;DHT22;19986;48.190;16.366;2023-09-12T08:16:38;26.30;99.90
33645;DHT22;19986;48.190;16.366;2023-09-12T08:19:04;26.40;99.90
33645;DHT22;19986;48.190;16.366;2023-09-12T08:21:30;26.50;99.90
33645;DHT22;19986;48.190;16.366;2023-09-12T08:23:55;26.60;99.90
33645;DHT22;19986;48.190;16.366;2023-09-12T08:26:22;26.60;99.90
33645;DHT22;19986;48.190;16.366;2023-09-12T08:28:48;26.60;99.90
33645;DHT22;19986;48.190;16.366;2023-09-12T08:31:13;26.70;99.90
33645;DHT22;19986;48.190;16.366;2023-09-12T08:33:39;26.80;99.90
33645;DHT22;19986;48.190;16.366;2023-09-12T08:36:05;26.90;99.90
33645;DHT22;19986;48.190;16.366;2023-09-12T08:38:31;27.00;99.90
33645;DHT22;19986;48.190;16.366;2023-09-12T08:40:56;27.00;99.90
33645;DHT22;19986;48.190;16.366;2023-09-12T08:43:23;27.00;99.90
33645;DHT22;19986;48.190;16.366;2023-09-12T08:45:49;27.00;99.90
33645;DHT22;19986;48.190;16.366;2023-09-12T08:48:16;27.00;99.90
33645;DHT22;19986;48.190;16.366;2023-09-12T08:50:43;27.00;99.90
33645;DHT22;19986;48.190;16.366;2023-09-12T08:53:10;27.00;99.90
33645;DHT22;19986;48.190;16.366;2023-09-12T08:55:36;27.10;99.90
33645;DHT22;19986;48.190;16.366;2023-09-12T08:58:03;27.10;99.90
33645;DHT22;19986;48.190;16.366;2023-09-12T09:00:30;27.20;99.90
33645;DHT22;19986;48.190;16.366;2023-09-12T09:02:56;27.20;99.90
33645;DHT22;19986;48.190;16.366;2023-09-12T09:05:22;27.20;99.90
33645;DHT22;19986;48.190;16.366;2023-09-12T09:07:49;27.20;99.90
33645;DHT22;19986;48.190;16.366;2023-09-12T09:10:17;27.30;99.90
33645;DHT22;19986;48.190;16.366;2023-09-12T09:12:45;27.40;99.90
33645;DHT22;19986;48.190;16.366;2023-09-12T09:15:26;27.50;99.90
33645;DHT22;19986;48.190;16.366;2023-09-12T09:17:56;27.60;99.90
33645;DHT22;19986;48.190;16.366;2023-09-12T09:20:27;27.70;99.90
33645;DHT22;19986;48.190;16.366;2023-09-12T09:23:00;27.80;99.90
33645;DHT22;19986;48.190;16.366;2023-09-12T09:25:27;27.80;99.90
33645;DHT22;19986;48.190;16.366;2023-09-12T09:27:53;27.90;99.90
33645;DHT22;19986;48.190;16.366;2023-09-12T09:30:39;28.00;99.90
33645;DHT22;19986;48.190;16.366;2023-09-12T09:33:05;28.00;99.90
33645;DHT22;19986;48.190;16.366;2023-09-12T09:35:31;28.10;99.90
33645;DHT22;19986;48.190;16.366;2023-09-12T09:37:57;28.10;99.90
33645;DHT22;19986;48.190;16.366;2023-09-12T09:40:23;28.20;99.90
33645;DHT22;19986;48.190;16.366;2023-09-12T09:42:56;28.30;99.90
33645;DHT22;19986;48.190;16.366;2023-09-12T09:45:24;28.40;99.90
33645;DHT22;19986;48.190;16.366;2023-09-12T09:47:50;28.50;99.90
33645;DHT22;19986;48.190;16.366;2023-09-12T09:50:17;28.50;99.90
33645;DHT22;19986;48.190;16.366;2023-09-12T09:52:43;28.70;99.90
33645;DHT22;19986;48.190;16.366;2023-09-12T09:55:15;28.70;99.90
33645;DHT22;19986;48.190;16.366;2023-09-12T09:57:41;28.80;99.90
33645;DHT22;19986;48.190;16.366;2023-09-12T10:00:08;28.80;99.90
33645;DHT22;19986;48.190;16.366;2023-09-12T10:02:35;28.80;99.90
33645;DHT22;19986;48.190;16.366;2023-09-12T10:05:05;29.00;99.90
33645;DHT22;19986;48.190;16.366;2023-09-12T10:07:32;29.00;99.90
33645;DHT22;19986;48.190;16.366;2023-09-12T10:10:02;29.10;99.90
33645;DHT22;19986;48.190;16.366;2023-09-12T10:12:32;29.20;99.90
33645;DHT22;19986;48.190;16.366;2023-09-12T10:15:00;29.10;99.90
33645;DHT22;19986;48.190;16.366;2023-09-12T10:17:35;29.20;99.90
33645;DHT22;19986;48.190;16.366;2023-09-12T10:20:11;29.20;99.90
33645;DHT22;19986;48.190;16.366;2023-09-12T10:22:49;29.20;99.90
33645;DHT22;19986;48.190;16.366;2023-09-12T10:25:15;29.20;99.90
33645;DHT22;19986;48.190;16.366;2023-09-12T10:27:42;29.20;99.90
33645;DHT22;19986;48.190;16.366;2023-09-12T10:30:08;29.20;99.90
33645;DHT22;19986;48.190;16.366;2023-09-12T10:32:35;29.30;99.90
33645;DHT22;19986;48.190;16.366;2023-09-12T10:35:02;29.50;99.90
33645;DHT22;19986;48.190;16.366;2023-09-12T10:37:29;29.60;99.90
33645;DHT22;19986;48.190;16.366;2023-09-12T10:39:57;29.70;99.90
33645;DHT22;19986;48.190;16.366;2023-09-12T10:42:25;29.70;99.60
33645;DHT22;19986;48.190;16.366;2023-09-12T10:44:54;29.70;99.40
33645;DHT22;19986;48.190;16.366;2023-09-12T10:47:21;29.80;99.40
33645;DHT22;19986;48.190;16.366;2023-09-12T10:49:48;29.90;99.40
33645;DHT22;19986;48.190;16.366;2023-09-12T10:52:27;30.00;99.10
33645;DHT22;19986;48.190;16.366;2023-09-12T10:54:53;30.00;98.80
33645;DHT22;19986;48.190;16.366;2023-09-12T10:57:19;30.00;98.80
33645;DHT22;19986;48.190;16.366;2023-09-12T11:02:39;30.60;98.30
33645;DHT22;19986;48.190;16.366;2023-09-12T11:05:07;30.70;97.90
33645;DHT22;19986;48.190;16.366;2023-09-12T11:07:56;31.10;98.40
33645;DHT22;19986;48.190;16.366;2023-09-12T11:10:23;32.40;97.50
33645;DHT22;19986;48.190;16.366;2023-09-12T11:12:51;33.90;96.00
33645;DHT22;19986;48.190;16.366;2023-09-12T11:15:18;35.40;93.70
33645;DHT22;19986;48.190;16.366;2023-09-12T11:17:49;36.50;92.20
33645;DHT22;19986;48.190;16.366;2023-09-12T11:20:16;37.40;90.70
33645;DHT22;19986;48.190;16.366;2023-09-12T11:22:44;38.20;88.20
33645;DHT22;19986;48.190;16.366;2023-09-12T11:25:21;38.50;85.80
33645;DHT22;19986;48.190;16.366;2023-09-12T11:30:24;38.00;84.30
33645;DHT22;19986;48.190;16.366;2023-09-12T11:32:57;37.30;84.90
33645;DHT22;19986;48.190;16.366;2023-09-12T11:35:28;36.70;85.80
33645;DHT22;19986;48.190;16.366;2023-09-12T11:37:59;36.30;86.70
33645;DHT22;19986;48.190;16.366;2023-09-12T11:40:41;36.10;86.80
33645;DHT22;19986;48.190;16.366;2023-09-12T11:43:17;35.70;87.00
33645;DHT22;19986;48.190;16.366;2023-09-12T11:45:45;35.40;88.10
33645;DHT22;19986;48.190;16.366;2023-09-12T11:48:12;35.50;87.60
33645;DHT22;19986;48.190;16.366;2023-09-12T11:50:38;35.90;87.90
33645;DHT22;19986;48.190;16.366;2023-09-12T11:53:09;36.60;87.10
33645;DHT22;19986;48.190;16.366;2023-09-12T11:55:46;37.40;85.50
33645;DHT22;19986;48.190;16.366;2023-09-12T11:58:16;38.20;83.00
33645;DHT22;19986;48.190;16.366;2023-09-12T12:00:48;38.40;81.80
33645;DHT22;19986;48.190;16.366;2023-09-12T12:03:15;38.60;81.30
33645;DHT22;19986;48.190;16.366;2023-09-12T12:05:41;38.80;80.20
33645;DHT22;19986;48.190;16.366;2023-09-12T12:08:08;38.70;80.00
33645;DHT22;19986;48.190;16.366;2023-09-12T12:10:34;38.30;79.90
33645;DHT22;19986;48.190;16.366;2023-09-12T12:13:02;37.70;80.40
33645;DHT22;19986;48.190;16.366;2023-09-12T12:15:28;37.50;81.20
33645;DHT22;19986;48.190;16.366;2023-09-12T12:17:55;37.50;81.60
33645;DHT22;19986;48.190;16.366;2023-09-12T12:20:22;37.60;81.60
33645;DHT22;19986;48.190;16.366;2023-09-12T12:22:48;37.20;81.50
33645;DHT22;19986;48.190;16.366;2023-09-12T12:25:14;36.60;82.10
33645;DHT22;19986;48.190;16.366;2023-09-12T12:27:42;36.10;83.50
33645;DHT22;19986;48.190;16.366;2023-09-12T12:30:09;35.50;84.20
33645;DHT22;19986;48.190;16.366;2023-09-12T12:32:42;35.10;84.90
33645;DHT22;19986;48.190;16.366;2023-09-12T12:35:09;34.80;86.30
33645;DHT22;19986;48.190;16.366;2023-09-12T12:37:36;34.40;86.90
33645;DHT22;19986;48.190;16.366;2023-09-12T12:40:02;34.00;87.60
33645;DHT22;19986;48.190;16.366;2023-09-12T12:42:37;33.80;88.10
33645;DHT22;19986;48.190;16.366;2023-09-12T12:45:11;33.60;88.60
33645;DHT22;19986;48.190;16.366;2023-09-12T12:47:38;33.40;89.00
33645;DHT22;19986;48.190;16.366;2023-09-12T12:50:12;33.30;89.80
33645;DHT22;19986;48.190;16.366;2023-09-12T12:52:39;33.20;90.00
33645;DHT22;19986;48.190;16.366;2023-09-12T12:55:07;33.10;90.10
33645;DHT22;19986;48.190;16.366;2023-09-12T12:57:38;33.00;90.30
33645;DHT22;19986;48.190;16.366;2023-09-12T13:00:07;32.90;90.30
33645;DHT22;19986;48.190;16.366;2023-09-12T13:02:33;32.70;90.60
33645;DHT22;19986;48.190;16.366;2023-09-12T13:04:59;32.70;90.80
33645;DHT22;19986;48.190;16.366;2023-09-12T13:07:25;32.60;90.80
33645;DHT22;19986;48.190;16.366;2023-09-12T13:09:51;32.60;90.80
33645;DHT22;19986;48.190;16.366;2023-09-12T13:12:17;32.50;90.90
33645;DHT22;19986;48.190;16.366;2023-09-12T13:14:43;32.50;91.00
33645;DHT22;19986;48.190;16.366;2023-09-12T13:17:09;32.40;91.00
33645;DHT22;19986;48.190;16.366;2023-09-12T13:19:36;32.40;91.00
33645;DHT22;19986;48.190;16.366;2023-09-12T13:22:01;32.30;91.10
33645;DHT22;19986;48.190;16.366;2023-09-12T13:24:28;32.30;91.10
33645;DHT22;19986;48.190;16.366;2023-09-12T13:26:54;32.40;91.10
33645;DHT22;19986;48.190;16.366;2023-09-12T13:29:19;32.40;91.10
33645;DHT22;19986;48.190;16.366;2023-09-12T13:31:45;32.40;91.10
33645;DHT22;19986;48.190;16.366;2023-09-12T13:34:11;32.50;91.20
33645;DHT22;19986;48.190;16.366;2023-09-12T13:36:37;32.40;91.20
33645;DHT22;19986;48.190;16.366;2023-09-12T13:39:03;32.40;91.30
33645;DHT22;19986;48.190;16.366;2023-09-12T13:41:29;32.40;91.50
33645;DHT22;19986;48.190;16.366;2023-09-12T13:43:55;32.30;91.40
33645;DHT22;19986;48.190;16.366;2023-09-12T13:46:21;32.30;91.20
33645;DHT22;19986;48.190;16.366;2023-09-12T13:48:47;32.30;91.00
33645;DHT22;19986;48.190;16.366;2023-09-12T13:51:14;32.30;91.00
33645;DHT22;19986;48.190;16.366;2023-09-12T13:53:41;32.30;91.00
33645;DHT22;19986;48.190;16.366;2023-09-12T13:56:06;32.40;91.30
33645;DHT22;19986;48.190;16.366;2023-09-12T13:58:33;32.30;91.10
33645;DHT22;19986;48.190;16.366;2023-09-12T14:01:00;32.30;91.20
33645;DHT22;19986;48.190;16.366;2023-09-12T14:03:26;32.30;91.10
33645;DHT22;19986;48.190;16.366;2023-09-12T14:05:53;32.30;91.40
33645;DHT22;19986;48.190;16.366;2023-09-12T14:08:19;32.30;91.20
33645;DHT22;19986;48.190;16.366;2023-09-12T14:10:45;32.40;91.30
33645;DHT22;19986;48.190;16.366;2023-09-12T14:15:56;32.30;90.90
33645;DHT22;19986;48.190;16.366;2023-09-12T14:18:22;32.30;91.40
33645;DHT22;19986;48.190;16.366;2023-09-12T14:20:49;32.40;91.20
33645;DHT22;19986;48.190;16.366;2023-09-12T14:23:17;32.30;90.80
33645;DHT22;19986;48.190;16.366;2023-09-12T14:25:43;32.30;91.10
33645;DHT22;19986;48.190;16.366;2023-09-12T14:28:10;32.30;91.20
33645;DHT22;19986;48.190;16.366;2023-09-12T14:30:37;32.20;91.10
33645;DHT22;19986;48.190;16.366;2023-09-12T14:33:04;32.30;91.00
33645;DHT22;19986;48.190;16.366;2023-09-12T14:35:32;32.30;91.00
33645;DHT22;19986;48.190;16.366;2023-09-12T14:37:59;32.30;91.10
33645;DHT22;19986;48.190;16.366;2023-09-12T14:40:27;32.20;91.10
33645;DHT22;19986;48.190;16.366;2023-09-12T14:42:54;32.20;91.20
33645;DHT22;19986;48.190;16.366;2023-09-12T14:45:21;32.20;91.20
33645;DHT22;19986;48.190;16.366;2023-09-12T14:47:49;32.10;91.10
33645;DHT22;19986;48.190;16.366;2023-09-12T14:50:17;32.20;91.10
33645;DHT22;19986;48.190;16.366;2023-09-12T14:52:44;32.20;91.00
33645;DHT22;19986;48.190;16.366;2023-09-12T14:55:10;32.10;91.00
33645;DHT22;19986;48.190;16.366;2023-09-12T14:57:37;32.10;90.90
33645;DHT22;19986;48.190;16.366;2023-09-12T15:00:04;32.10;91.00
33645;DHT22;19986;48.190;16.366;2023-09-12T15:02:31;32.10;91.00
33645;DHT22;19986;48.190;16.366;2023-09-12T15:05:02;32.00;91.10
33645;DHT22;19986;48.190;16.366;2023-09-12T15:07:31;32.00;91.10
33645;DHT22;19986;48.190;16.366;2023-09-12T15:09:59;31.90;91.10
33645;DHT22;19986;48.190;16.366;2023-09-12T15:12:26;31.90;91.30
33645;DHT22;19986;48.190;16.366;2023-09-12T15:14:52;31.90;91.30
33645;DHT22;19986;48.190;16.366;2023-09-12T15:17:19;31.90;91.30
33645;DHT22;19986;48.190;16.366;2023-09-12T15:19:45;31.80;91.30
33645;DHT22;19986;48.190;16.366;2023-09-12T15:22:11;31.90;91.30
33645;DHT22;19986;48.190;16.366;2023-09-12T15:24:40;31.90;91.10
33645;DHT22;19986;48.190;16.366;2023-09-12T15:27:06;31.90;91.10
33645;DHT22;19986;48.190;16.366;2023-09-12T15:29:32;31.90;91.00
33645;DHT22;19986;48.190;16.366;2023-09-12T15:31:59;31.90;91.00